createdAt,value
2018-01-14T00:01:24.200Z,102526.94
2018-01-14T00:03:50.014Z,102525.26
2018-01-14T00:06:15.827Z,102519.03
2018-01-14T00:08:41.646Z,102515.16
2018-01-14T00:11:07.466Z,102513.89
2018-01-14T00:13:33.283Z,102524.52
2018-01-14T00:15:59.214Z,102528.57
2018-01-14T00:18:25.035Z,102524.16
2018-01-14T00:20:50.919Z,102522.98
2018-01-14T00:23:16.774Z,102521.92
2018-01-14T00:25:42.601Z,102521.42
2018-01-14T00:28:08.427Z,102525.08
2018-01-14T00:30:34.291Z,102524.83
2018-01-14T00:33:00.110Z,102520.81
2018-01-14T00:35:25.926Z,102527.03
2018-01-14T00:37:51.754Z,102527.39
2018-01-14T00:40:17.565Z,102525.48
2018-01-14T00:42:43.434Z,102529.59
2018-01-14T00:45:09.355Z,102523.11
2018-01-14T00:47:35.183Z,102514.86
2018-01-14T00:50:01.000Z,102522.55
2018-01-14T00:52:26.815Z,102517.47
2018-01-14T00:54:52.865Z,102519.68
2018-01-14T00:57:18.675Z,102516.25
2018-01-14T00:59:44.495Z,102509.80
2018-01-14T01:02:10.311Z,102512.36
2018-01-14T01:04:36.534Z,102513.22
2018-01-14T01:07:02.359Z,102511.02
2018-01-14T01:09:28.180Z,102517.41
2018-01-14T01:11:54.221Z,102511.47
2018-01-14T01:14:20.126Z,102506.48
2018-01-14T01:16:46.114Z,102512.75
2018-01-14T01:19:11.976Z,102508.84
2018-01-14T01:21:37.806Z,102503.34
2018-01-14T01:24:03.618Z,102509.00
2018-01-14T01:26:29.453Z,102499.17
2018-01-14T01:28:55.351Z,102505.20
2018-01-14T01:31:21.190Z,102502.41
2018-01-14T01:33:47.039Z,102498.35
2018-01-14T01:36:12.887Z,102498.61
2018-01-14T01:38:38.721Z,102501.89
2018-01-14T01:41:04.580Z,102496.73
2018-01-14T01:43:30.539Z,102501.06
2018-01-14T01:45:56.393Z,102491.73
2018-01-14T01:48:22.292Z,102491.30
2018-01-14T01:50:48.109Z,102488.17
2018-01-14T01:53:13.922Z,102490.16
2018-01-14T01:55:39.779Z,102487.02
2018-01-14T01:58:05.766Z,102487.52
2018-01-14T02:00:31.583Z,102482.14
2018-01-14T02:02:57.395Z,102479.21
2018-01-14T02:05:23.203Z,102480.05
2018-01-14T02:07:49.049Z,102470.08
2018-01-14T02:10:14.862Z,102471.11
2018-01-14T02:12:40.690Z,102472.36
2018-01-14T02:15:06.534Z,102475.19
2018-01-14T02:17:32.518Z,102476.36
2018-01-14T02:20:02.459Z,102475.95
2018-01-14T02:22:28.281Z,102473.39
2018-01-14T02:24:54.130Z,102475.67
2018-01-14T02:27:19.986Z,102483.48
2018-01-14T02:29:45.851Z,102480.38
2018-01-14T02:32:11.670Z,102481.33
2018-01-14T02:34:37.555Z,102485.62
2018-01-14T02:37:03.371Z,102486.75
2018-01-14T02:39:29.217Z,102486.46
2018-01-14T02:41:55.034Z,102492.23
2018-01-14T02:44:20.995Z,102490.89
2018-01-14T02:46:46.809Z,102487.75
2018-01-14T02:49:12.630Z,102492.80
2018-01-14T02:51:38.454Z,102485.69
2018-01-14T02:54:04.331Z,102485.11
2018-01-14T02:56:30.150Z,102487.27
2018-01-14T02:58:55.978Z,102484.48
2018-01-14T03:01:21.798Z,102487.75
2018-01-14T03:03:47.654Z,102489.91
2018-01-14T03:06:13.466Z,102490.94
2018-01-14T03:08:39.325Z,102492.44
2018-01-14T03:11:05.432Z,102502.11
2018-01-14T03:13:31.301Z,102494.31
2018-01-14T03:15:57.206Z,102494.20
2018-01-14T03:18:23.014Z,102493.92
2018-01-14T03:20:48.835Z,102499.08
2018-01-14T03:23:14.654Z,102494.95
2018-01-14T03:25:40.476Z,102497.87
2018-01-14T03:28:06.298Z,102505.17
2018-01-14T03:30:32.203Z,102501.69
2018-01-14T03:32:58.597Z,102502.37
2018-01-14T03:35:24.414Z,102507.02
2018-01-14T03:37:50.291Z,102499.34
2018-01-14T03:40:16.109Z,102499.84
2018-01-14T03:42:41.931Z,102499.23
2018-01-14T03:45:07.871Z,102488.66
2018-01-14T03:47:33.725Z,102489.33
2018-01-14T03:49:59.541Z,102485.73
2018-01-14T03:52:25.393Z,102480.86
2018-01-14T03:54:51.289Z,102489.36
2018-01-14T03:57:17.195Z,102482.53
2018-01-14T03:59:43.047Z,102486.29
2018-01-14T04:02:08.871Z,102478.40
2018-01-14T04:04:34.717Z,102484.59
2018-01-14T04:07:00.531Z,102485.73
2018-01-14T04:09:26.386Z,102474.67
2018-01-14T04:11:52.202Z,102473.58
2018-01-14T04:14:18.164Z,102469.13
2018-01-14T04:16:44.174Z,102468.19
2018-01-14T04:19:10.047Z,102469.80
2018-01-14T04:21:35.867Z,102467.41
2018-01-14T04:24:01.718Z,102469.48
2018-01-14T04:26:27.534Z,102471.95
2018-01-14T04:28:53.398Z,102466.38
2018-01-14T04:31:19.218Z,102467.97
2018-01-14T04:33:45.038Z,102470.39
2018-01-14T04:36:10.857Z,102461.83
2018-01-14T04:38:37.483Z,102463.67
2018-01-14T04:41:03.340Z,102464.65
2018-01-14T04:43:29.164Z,102462.95
2018-01-14T04:45:55.058Z,102465.17
2018-01-14T04:48:20.882Z,102460.61
2018-01-14T04:50:46.882Z,102460.30
2018-01-14T04:53:12.714Z,102463.00
2018-01-14T04:55:38.568Z,102467.41
2018-01-14T04:58:04.447Z,102466.28
2018-01-14T05:00:30.286Z,102464.39
2018-01-14T05:02:56.134Z,102467.41
2018-01-14T05:05:21.950Z,102467.92
2018-01-14T05:07:47.784Z,102470.17
2018-01-14T05:10:13.594Z,102470.70
2018-01-14T05:12:39.414Z,102466.38
2018-01-14T05:15:05.346Z,102465.09
2018-01-14T05:17:31.202Z,102463.63
2018-01-14T05:19:57.022Z,102459.52
2018-01-14T05:22:22.901Z,102464.17
2018-01-14T05:24:48.726Z,102469.11
2018-01-14T05:27:14.587Z,102468.92
2018-01-14T05:29:40.403Z,102473.38
2018-01-14T05:32:06.224Z,102481.73
2018-01-14T05:34:32.050Z,102477.75
2018-01-14T05:36:57.935Z,102482.41
2018-01-14T05:39:23.757Z,102483.47
2018-01-14T05:41:49.570Z,102479.83
2018-01-14T05:44:15.425Z,102473.73
2018-01-14T05:46:41.418Z,102473.44
2018-01-14T05:49:07.230Z,102476.18
2018-01-14T05:51:33.046Z,102483.82
2018-01-14T05:53:58.861Z,102478.17
2018-01-14T05:56:24.722Z,102477.28
2018-01-14T05:58:50.541Z,102477.34
2018-01-14T06:01:16.451Z,102481.19
2018-01-14T06:03:42.269Z,102483.25
2018-01-14T06:06:08.122Z,102474.16
2018-01-14T06:08:33.934Z,102484.48
2018-01-14T06:10:59.922Z,102478.97
2018-01-14T06:13:25.734Z,102482.06
2018-01-14T06:15:51.590Z,102482.60
2018-01-14T06:18:17.424Z,102479.09
2018-01-14T06:20:43.346Z,102487.00
2018-01-14T06:23:09.174Z,102476.16
2018-01-14T06:25:35.015Z,102469.62
2018-01-14T06:28:00.830Z,102472.45
2018-01-14T06:30:26.649Z,102471.93
2018-01-14T06:32:52.602Z,102464.67
2018-01-14T06:35:18.415Z,102474.64
2018-01-14T06:37:44.235Z,102475.66
2018-01-14T06:40:10.063Z,102473.41
2018-01-14T06:42:35.897Z,102482.73
2018-01-14T06:45:01.805Z,102478.56
2018-01-14T06:47:27.738Z,102481.90
2018-01-14T06:49:53.553Z,102485.22
2018-01-14T06:52:19.388Z,102490.91
2018-01-14T06:54:45.390Z,102488.73
2018-01-14T06:57:11.235Z,102485.22
2018-01-14T06:59:37.086Z,102489.77
2018-01-14T07:02:02.911Z,102490.52
2018-01-14T07:04:28.732Z,102485.33
2018-01-14T07:06:54.551Z,102481.06
2018-01-14T07:09:20.439Z,102479.03
2018-01-14T07:11:46.474Z,102478.79
2018-01-14T07:14:12.463Z,102471.82
2018-01-14T07:16:39.685Z,102469.11
2018-01-14T07:19:05.526Z,102468.27
2018-01-14T07:21:31.382Z,102469.73
2018-01-14T07:23:57.205Z,102473.31
2018-01-14T07:26:23.155Z,102471.71
2018-01-14T07:28:48.981Z,102473.69
2018-01-14T07:31:14.874Z,102475.06
2018-01-14T07:33:40.874Z,102478.83
2018-01-14T07:36:06.727Z,102478.72
2018-01-14T07:38:32.570Z,102476.08
2018-01-14T07:40:58.391Z,102473.44
2018-01-14T07:43:24.248Z,102473.61
2018-01-14T07:45:50.066Z,102471.16
2018-01-14T07:48:15.881Z,102474.67
2018-01-14T07:50:41.748Z,102472.17
2018-01-14T07:53:07.730Z,102473.39
2018-01-14T07:55:33.548Z,102477.87
2018-01-14T07:57:59.463Z,102474.11
2018-01-14T08:00:25.284Z,102478.64
2018-01-14T08:02:51.209Z,102476.17
2018-01-14T08:05:17.017Z,102472.12
2018-01-14T08:07:42.958Z,102475.36
2018-01-14T08:10:08.834Z,102472.12
2018-01-14T08:12:34.667Z,102477.71
2018-01-14T08:15:00.478Z,102480.98
2018-01-14T08:17:26.350Z,102475.97
2018-01-14T08:19:52.170Z,102485.39
2018-01-14T08:22:18.031Z,102480.95
2018-01-14T08:24:44.016Z,102485.28
2018-01-14T08:27:09.834Z,102479.45
2018-01-14T08:29:35.688Z,102479.06
2018-01-14T08:32:01.546Z,102488.94
2018-01-14T08:34:27.365Z,102487.23
2018-01-14T08:36:53.183Z,102491.11
2018-01-14T08:39:18.998Z,102491.00
2018-01-14T08:41:44.978Z,102497.65
2018-01-14T08:44:10.793Z,102487.95
2018-01-14T08:46:45.323Z,102484.96
2018-01-14T08:49:11.578Z,102485.06
2018-01-14T08:51:37.451Z,102482.00
2018-01-14T08:54:03.270Z,102479.27
2018-01-14T08:56:29.327Z,102476.64
2018-01-14T08:58:55.325Z,102479.12
2018-01-14T09:01:27.287Z,102472.22
2018-01-14T09:03:53.210Z,102481.45
2018-01-14T09:06:19.135Z,102481.37
2018-01-14T09:08:45.042Z,102483.26
2018-01-14T09:11:10.846Z,102486.70
2018-01-14T09:13:38.744Z,102489.52
2018-01-14T09:16:04.557Z,102497.73
2018-01-14T09:18:30.400Z,102495.20
2018-01-14T09:20:56.255Z,102486.06
2018-01-14T09:23:22.070Z,102493.55
2018-01-14T09:25:47.922Z,102490.84
2018-01-14T09:28:13.774Z,102490.72
2018-01-14T09:30:45.707Z,102492.97
2018-01-14T09:33:11.558Z,102492.48
2018-01-14T09:35:37.711Z,102495.07
2018-01-14T09:38:03.570Z,102494.67
2018-01-14T09:40:29.395Z,102493.90
2018-01-14T09:42:55.234Z,102491.20
2018-01-14T09:45:21.042Z,102500.16
2018-01-14T09:47:46.895Z,102487.86
2018-01-14T09:50:12.787Z,102499.86
2018-01-14T09:52:38.729Z,102491.58
2018-01-14T09:55:05.374Z,102492.72
2018-01-14T09:57:31.262Z,102489.34
2018-01-14T09:59:57.190Z,102490.30
2018-01-14T10:02:23.217Z,102490.73
2018-01-14T10:04:49.033Z,102493.66
2018-01-14T10:07:14.848Z,102498.50
2018-01-14T10:09:40.660Z,102500.56
2018-01-14T10:12:06.594Z,102492.42
2018-01-14T10:14:32.506Z,102491.64
2018-01-14T10:16:58.429Z,102502.51
2018-01-14T10:19:24.353Z,102498.04
2018-01-14T10:21:50.197Z,102489.66
2018-01-14T10:24:16.194Z,102505.21
2018-01-14T10:26:42.001Z,102495.87
2018-01-14T10:29:08.755Z,102496.80
2018-01-14T10:31:34.568Z,102492.61
2018-01-14T10:34:00.522Z,102487.20
2018-01-14T10:36:26.553Z,102485.53
2018-01-14T10:38:52.362Z,102475.66
2018-01-14T10:41:18.278Z,102479.34
2018-01-14T10:43:44.094Z,102478.99
2018-01-14T10:46:10.031Z,102473.31
2018-01-14T10:48:36.035Z,102473.91
2018-01-14T10:51:01.983Z,102475.02
2018-01-14T10:53:27.874Z,102479.09
2018-01-14T10:55:53.717Z,102469.65
2018-01-14T10:58:19.666Z,102462.83
2018-01-14T11:00:51.493Z,102471.03
2018-01-14T11:03:17.342Z,102473.13
2018-01-14T11:05:43.263Z,102468.97
2018-01-14T11:08:09.149Z,102470.75
2018-01-14T11:10:35.010Z,102463.50
2018-01-14T11:13:00.818Z,102458.84
2018-01-14T11:15:26.634Z,102456.92
2018-01-14T11:17:52.443Z,102455.00
2018-01-14T11:20:18.260Z,102457.14
2018-01-14T11:22:44.076Z,102449.86
2018-01-14T11:25:10.055Z,102449.33
2018-01-14T11:27:35.899Z,102437.30
2018-01-14T11:30:03.566Z,102435.31
2018-01-14T11:32:29.418Z,102437.16
2018-01-14T11:34:55.439Z,102431.02
2018-01-14T11:37:21.395Z,102431.04
2018-01-14T11:39:47.278Z,102437.97
2018-01-14T11:42:13.191Z,102432.16
2018-01-14T11:44:39.046Z,102432.11
2018-01-14T11:47:04.903Z,102431.69
2018-01-14T11:49:30.727Z,102429.30
2018-01-14T11:51:56.706Z,102425.54
2018-01-14T11:54:23.669Z,102428.67
2018-01-14T11:56:49.525Z,102419.42
2018-01-14T11:59:15.384Z,102417.47
2018-01-14T12:01:41.281Z,102410.05
2018-01-14T12:04:07.130Z,102408.38
2018-01-14T12:06:32.973Z,102412.21
2018-01-14T12:08:58.825Z,102406.37
2018-01-14T12:11:24.641Z,102412.56
2018-01-14T12:13:50.463Z,102403.97
2018-01-14T12:16:16.285Z,102405.06
2018-01-14T12:18:42.246Z,102408.41
2018-01-14T12:21:08.053Z,102406.37
2018-01-14T12:23:33.869Z,102402.16
2018-01-14T12:25:59.722Z,102402.20
2018-01-14T12:28:25.619Z,102405.91
2018-01-14T12:30:51.429Z,102394.96
2018-01-14T12:33:17.458Z,102396.09
2018-01-14T12:35:43.310Z,102393.77
2018-01-14T12:38:09.382Z,102390.79
2018-01-14T12:40:35.247Z,102388.53
2018-01-14T12:43:01.071Z,102391.81
2018-01-14T12:45:26.891Z,102395.03
2018-01-14T12:47:52.717Z,102402.39
2018-01-14T12:50:18.523Z,102391.09
2018-01-14T12:52:44.339Z,102390.73
2018-01-14T12:55:10.391Z,102391.63
2018-01-14T12:57:36.202Z,102386.76
2018-01-14T13:00:02.243Z,102390.85
2018-01-14T13:02:28.235Z,102392.45
2018-01-14T13:07:26.702Z,102377.73
2018-01-14T13:09:52.511Z,102373.64
2018-01-14T13:12:18.331Z,102379.17
2018-01-14T13:14:44.279Z,102373.14
2018-01-14T13:17:10.198Z,102371.83
2018-01-14T13:19:36.015Z,102369.02
2018-01-14T13:22:01.841Z,102374.07
2018-01-14T13:24:27.658Z,102372.14
2018-01-14T13:26:53.498Z,102365.95
2018-01-14T13:29:19.362Z,102362.98
2018-01-14T13:31:45.181Z,102366.45
2018-01-14T13:34:11.151Z,102369.33
2018-01-14T13:36:36.958Z,102375.96
2018-01-14T13:39:02.802Z,102372.68
2018-01-14T13:41:28.622Z,102368.16
2018-01-14T13:43:54.430Z,102366.06
2018-01-14T13:46:20.304Z,102369.13
2018-01-14T13:48:46.129Z,102374.07
2018-01-14T13:51:11.949Z,102371.12
2018-01-14T13:53:37.762Z,102358.72
2018-01-14T13:56:03.578Z,102357.25
2018-01-14T13:58:29.450Z,102359.77
2018-01-14T14:00:55.270Z,102363.55
2018-01-14T14:03:21.193Z,102365.14
2018-01-14T14:05:47.013Z,102364.71
2018-01-14T14:08:12.934Z,102359.92
2018-01-14T14:10:38.747Z,102362.51
2018-01-14T14:13:04.703Z,102355.34
2018-01-14T14:15:30.634Z,102347.62
2018-01-14T14:17:56.503Z,102354.66
2018-01-14T14:20:22.366Z,102356.98
2018-01-14T14:22:48.429Z,102352.42
2018-01-14T14:25:14.295Z,102351.80
2018-01-14T14:27:40.207Z,102354.55
2018-01-14T14:30:06.162Z,102348.23
2018-01-14T14:32:31.994Z,102352.02
2018-01-14T14:34:58.019Z,102354.34
2018-01-14T14:37:23.847Z,102361.23
2018-01-14T14:39:49.749Z,102361.97
2018-01-14T14:42:15.724Z,102353.61
2018-01-14T14:44:41.551Z,102359.11
2018-01-14T14:47:07.366Z,102358.98
2018-01-14T14:49:33.219Z,102352.27
2018-01-14T14:51:59.047Z,102357.52
2018-01-14T14:54:24.882Z,102351.72
2018-01-14T14:56:50.707Z,102361.59
2018-01-14T14:59:16.683Z,102354.00
2018-01-14T15:01:42.497Z,102355.32
2018-01-14T15:04:08.348Z,102357.68
2018-01-14T15:06:34.235Z,102350.52
2018-01-14T15:09:00.112Z,102344.45
2018-01-14T15:11:25.930Z,102350.59
2018-01-14T15:13:51.921Z,102351.48
2018-01-14T15:16:17.780Z,102359.73
2018-01-14T15:18:43.606Z,102358.69
2018-01-14T15:21:09.602Z,102359.77
2018-01-14T15:23:35.599Z,102367.81
2018-01-14T15:26:01.464Z,102359.41
2018-01-14T15:28:27.322Z,102355.13
2018-01-14T15:30:53.150Z,102357.68
2018-01-14T15:33:19.018Z,102352.69
2018-01-14T15:35:44.878Z,102349.79
2018-01-14T15:38:10.740Z,102352.65
2018-01-14T15:40:36.564Z,102359.07
2018-01-14T15:43:02.387Z,102355.52
2018-01-14T15:45:28.403Z,102354.12
2018-01-14T15:47:54.258Z,102355.00
2018-01-14T15:50:20.082Z,102348.47
2018-01-14T15:52:45.962Z,102354.81
2018-01-14T15:55:11.803Z,102351.67
2018-01-14T15:57:37.631Z,102357.36
2018-01-14T16:00:03.819Z,102353.45
2018-01-14T16:02:29.715Z,102349.78
2018-01-14T16:04:55.692Z,102345.41
2018-01-14T16:07:21.515Z,102343.67
2018-01-14T16:09:47.368Z,102344.87
2018-01-14T16:12:13.201Z,102346.58
2018-01-14T16:14:39.181Z,102345.66
2018-01-14T16:17:04.996Z,102355.94
2018-01-14T16:19:30.864Z,102351.61
2018-01-14T16:21:56.735Z,102346.78
2018-01-14T16:24:22.628Z,102352.36
2018-01-14T16:26:48.681Z,102344.83
2018-01-14T16:29:16.541Z,102343.20
2018-01-14T16:31:42.423Z,102344.91
2018-01-14T16:34:08.347Z,102347.04
2018-01-14T16:36:34.158Z,102347.70
2018-01-14T16:38:59.974Z,102346.77
2018-01-14T16:41:25.957Z,102351.56
2018-01-14T16:43:52.006Z,102350.91
2018-01-14T16:46:17.826Z,102349.98
2018-01-14T16:48:44.817Z,102354.12
2018-01-14T16:51:10.629Z,102348.39
2018-01-14T16:53:36.550Z,102342.31
2018-01-14T16:56:02.506Z,102343.55
2018-01-14T16:58:28.418Z,102342.16
2018-01-14T17:00:54.306Z,102339.73
2018-01-14T17:03:20.334Z,102341.81
2018-01-14T17:05:46.357Z,102342.44
2018-01-14T17:08:12.171Z,102340.92
2018-01-14T17:10:37.983Z,102346.66
2018-01-14T17:13:03.809Z,102340.23
2018-01-14T17:15:29.630Z,102338.95
2018-01-14T17:17:55.446Z,102341.27
2018-01-14T17:20:21.267Z,102348.55
2018-01-14T17:22:47.099Z,102344.80
2018-01-14T17:25:12.911Z,102337.02
2018-01-14T17:27:38.729Z,102338.45
2018-01-14T17:30:04.547Z,102337.61
2018-01-14T17:32:30.406Z,102337.64
2018-01-14T17:34:56.234Z,102338.03
2018-01-14T17:37:22.102Z,102332.50
2018-01-14T17:39:47.906Z,102339.33
2018-01-14T17:42:13.819Z,102333.84
2018-01-14T17:44:39.820Z,102337.06
2018-01-14T17:47:05.682Z,102328.63
2018-01-14T17:49:31.506Z,102332.19
2018-01-14T17:51:57.326Z,102330.56
2018-01-14T17:54:23.138Z,102333.27
2018-01-14T17:56:49.053Z,102337.33
2018-01-14T17:59:14.893Z,102333.23
2018-01-14T18:01:40.856Z,102327.00
2018-01-14T18:04:06.799Z,102331.14
2018-01-14T18:06:32.601Z,102333.81
2018-01-14T18:08:58.588Z,102335.86
2018-01-14T18:11:24.406Z,102330.95
2018-01-14T18:13:50.284Z,102333.31
2018-01-14T18:16:16.138Z,102332.41
2018-01-14T18:18:42.101Z,102330.75
2018-01-14T18:21:07.957Z,102332.15
2018-01-14T18:23:33.815Z,102336.71
2018-01-14T18:25:59.790Z,102334.81
2018-01-14T18:28:25.657Z,102334.94
2018-01-14T18:30:51.474Z,102339.50
2018-01-14T18:33:17.376Z,102332.77
2018-01-14T18:35:43.346Z,102329.09
2018-01-14T18:38:09.166Z,102326.07
2018-01-14T18:40:35.069Z,102324.99
2018-01-14T18:43:00.920Z,102319.77
2018-01-14T18:45:32.744Z,102320.66
2018-01-14T18:47:58.572Z,102319.46
2018-01-14T18:50:30.837Z,102319.00
2018-01-14T18:53:01.739Z,102314.20
2018-01-14T18:55:29.065Z,102318.26
2018-01-14T18:57:56.555Z,102318.48
2018-01-14T19:00:23.354Z,102318.64
2018-01-14T19:02:50.391Z,102321.00
2018-01-14T19:05:18.822Z,102322.02
2018-01-14T19:07:45.436Z,102324.91
2018-01-14T19:10:11.338Z,102327.42
2018-01-14T19:12:37.354Z,102322.09
2018-01-14T19:15:03.170Z,102323.09
2018-01-14T19:17:28.990Z,102318.95
2018-01-14T19:19:54.842Z,102322.05
2018-01-14T19:22:20.673Z,102324.30
2018-01-14T19:24:46.525Z,102326.19
2018-01-14T19:27:12.346Z,102323.67
2018-01-14T19:29:38.364Z,102325.34
2018-01-14T19:32:04.226Z,102318.95
2018-01-14T19:34:30.105Z,102312.58
2018-01-14T19:36:55.930Z,102316.32
2018-01-14T19:39:21.805Z,102319.50
2018-01-14T19:41:47.634Z,102315.91
2018-01-14T19:44:13.635Z,102313.61
2018-01-14T19:46:39.502Z,102307.55
2018-01-14T19:49:05.412Z,102311.41
2018-01-14T19:51:31.443Z,102313.39
2018-01-14T19:53:57.362Z,102319.73
2018-01-14T19:56:23.312Z,102315.47
2018-01-14T19:58:49.327Z,102313.77
2018-01-14T20:01:15.159Z,102309.33
2018-01-14T20:03:40.997Z,102306.03
2018-01-14T20:06:09.942Z,102297.45
2018-01-14T20:08:35.854Z,102294.47
2018-01-14T20:11:01.771Z,102292.54
2018-01-14T20:13:27.703Z,102292.97
2018-01-14T20:15:53.583Z,102282.75
2018-01-14T20:18:20.442Z,102275.56
2018-01-14T20:20:46.270Z,102274.91
2018-01-14T20:23:12.194Z,102278.66
2018-01-14T20:25:38.039Z,102272.78
2018-01-14T20:28:03.867Z,102282.17
2018-01-14T20:30:37.410Z,102279.55
2018-01-14T20:33:08.281Z,102279.00
2018-01-14T20:35:36.059Z,102275.59
2018-01-14T20:38:01.943Z,102271.08
2018-01-14T20:40:28.640Z,102266.86
2018-01-14T20:42:55.634Z,102261.09
2018-01-14T20:45:22.294Z,102258.66
2018-01-14T20:47:48.242Z,102249.69
2018-01-14T20:50:14.115Z,102261.36
2018-01-14T20:52:43.656Z,102262.56
2018-01-14T20:55:09.921Z,102266.28
2018-01-14T20:57:36.246Z,102268.25
2018-01-14T21:00:02.070Z,102268.37
2018-01-14T21:02:29.214Z,102267.97
2018-01-14T21:04:55.082Z,102265.94
2018-01-14T21:07:21.083Z,102268.88
2018-01-14T21:09:46.955Z,102261.59
2018-01-14T21:12:12.774Z,102254.18
2018-01-14T21:14:38.786Z,102262.48
2018-01-14T21:17:04.626Z,102259.05
2018-01-14T21:19:31.702Z,102256.77
2018-01-14T21:22:00.454Z,102259.16
2018-01-14T21:24:26.277Z,102258.97
2018-01-14T21:26:54.139Z,102254.63
2018-01-14T21:29:20.066Z,102251.08
2018-01-14T21:31:47.647Z,102242.30
2018-01-14T21:34:13.601Z,102247.61
2018-01-14T21:36:41.602Z,102243.84
2018-01-14T21:39:07.678Z,102244.39
2018-01-14T21:41:35.851Z,102245.20
2018-01-14T21:44:01.783Z,102239.02
2018-01-14T21:46:30.238Z,102250.50
2018-01-14T21:49:01.385Z,102252.59
2018-01-14T21:51:32.175Z,102246.52
2018-01-14T21:53:58.119Z,102245.89
2018-01-14T21:56:23.954Z,102248.53
2018-01-14T21:58:51.489Z,102241.27
2018-01-14T22:01:17.363Z,102232.02
2018-01-14T22:03:43.262Z,102239.14
2018-01-14T22:06:09.128Z,102229.20
2018-01-14T22:08:35.052Z,102233.09
2018-01-14T22:11:00.968Z,102234.88
2018-01-14T22:13:26.788Z,102232.44
2018-01-14T22:15:52.643Z,102240.79
2018-01-14T22:18:18.458Z,102234.60
2018-01-14T22:20:44.339Z,102238.28
2018-01-14T22:23:10.147Z,102241.11
2018-01-14T22:25:35.966Z,102225.86
2018-01-14T22:28:01.935Z,102236.19
2018-01-14T22:30:27.834Z,102232.21
2018-01-14T22:32:53.698Z,102224.08
2018-01-14T22:35:19.511Z,102222.28
2018-01-14T22:37:45.363Z,102214.78
2018-01-14T22:40:11.215Z,102213.03
2018-01-14T22:42:37.030Z,102211.52
2018-01-14T22:45:02.850Z,102209.62
2018-01-14T22:47:28.675Z,102208.66
2018-01-14T22:49:54.530Z,102209.25
2018-01-14T22:52:20.394Z,102202.25
2018-01-14T22:54:46.206Z,102194.78
2018-01-14T22:57:12.038Z,102189.33
2018-01-14T22:59:37.881Z,102188.05
2018-01-14T23:02:03.721Z,102186.55
2018-01-14T23:04:29.579Z,102189.53
2018-01-14T23:06:55.398Z,102185.27
2018-01-14T23:09:21.259Z,102183.59
2018-01-14T23:11:47.134Z,102186.66
2018-01-14T23:14:12.959Z,102183.52
2018-01-14T23:16:38.781Z,102181.86
2018-01-14T23:19:04.594Z,102175.37
2018-01-14T23:21:30.414Z,102176.84
2018-01-14T23:23:56.225Z,102172.23
2018-01-14T23:26:22.087Z,102182.41
2018-01-14T23:28:47.938Z,102175.53
2018-01-14T23:31:13.755Z,102175.22
2018-01-14T23:33:39.590Z,102169.42
2018-01-14T23:36:05.407Z,102164.97
2018-01-14T23:38:32.016Z,102167.17
2018-01-14T23:40:57.825Z,102159.16
2018-01-14T23:43:23.639Z,102159.64
2018-01-14T23:45:49.499Z,102157.48
2018-01-14T23:48:15.359Z,102148.20
2018-01-14T23:50:41.178Z,102157.70
2018-01-14T23:53:06.993Z,102153.66
2018-01-14T23:55:32.807Z,102151.34
2018-01-14T23:57:58.634Z,102149.53
